• Join FlightAware (Why Join?)
  • Login
  • US Flag 
06:06PM EST


 

Airport Tracker/Info


-or-


 

Live Flight TrackerFlight Track Log ✈ LBQ652 ✈ 24-Apr-2013 ✈ KRDG - KLUK

Flight Track Log - Related Links

Times and Time Zones

All times are in EDT time to prevent confusion due to time zone crossing. See the LBQ652 flight status page for this flight to view local times or setup timezone preferences in your user account.

Time Position Orientation Groundspeed Altitude Reporting Facility
EDT Latitude Longitude Course Direction KTS MPH feet Rate Location/Type
11:46PM 40.4131 -76.0811 288° West 184 212 4,200  Level New York Center
11:47PM 40.4403 -76.1678 292° West 223 257 4,900 600 Climbing New York Center
11:48PM 40.4678 -76.2492 294° West 242 278 5,400 1,260 Climbing New York Center
11:49PM 40.4847 -76.3322 285° West 248 285 7,400 1,860 Climbing New York Center
11:50PM 40.5224 -76.4727 288° West  Level FlightAware Approximate
11:50PM 40.4783 -76.4244 265° West 243 280 9,200  Level New York Center
11:51PM 40.5458 -76.5665 288° West  Level FlightAware Approximate
11:51PM 40.4706 -76.5003 262° West 243 280 10,800  Level New York Center
11:52PM 40.4614 -76.6033 263° West 249 287 12,400 1,440 Climbing New York Center
11:53PM 40.4550 -76.6900 264° West 258 297 13,800 1,020 Climbing New York Center
11:54PM 40.4464 -76.7739 262° West 251 289 14,500 840 Climbing New York Center
11:55PM 40.4375 -76.8658 263° West 256 295 15,500 1,020 Climbing New York Center
11:56PM 40.4281 -76.9686 263° West 256 295 16,600 1,080 Climbing New York Center
11:57PM 40.4214 -77.0581 264° West 256 295 17,700 1,140 Climbing New York Center
11:58PM 40.4117 -77.1608 263° West 261 300 18,900 1,080 Climbing New York Center
11:59PM 40.4022 -77.2553 263° West 266 306 19,900 840 Climbing New York Center
12:00AM 40.3956 -77.3419 264° West 266 306 20,600 780 Climbing New York Center
12:02AM 40.3628 -77.4847 253° West 261 300 22,000 900 Climbing Cleveland Center
12:03AM 40.3208 -77.5575 233° Southwest 251 289 23,000 1,200 Climbing Cleveland Center
12:04AM 40.2831 -77.6272 235° Southwest 251 289 24,400 1,680 Climbing Cleveland Center
12:05AM 40.2431 -77.6944 232° Southwest 246 283 26,400 1,740 Climbing Cleveland Center
12:06AM 40.2072 -77.7611 235° Southwest 235 270 27,900 1,440 Climbing Cleveland Center
12:07AM 40.1756 -77.8306 239° Southwest 235 270 29,300 1,500 Climbing Cleveland Center
12:08AM 40.1550 -77.9208 253° West 229 264 30,900 1,440 Climbing Cleveland Center
12:09AM 40.1461 -77.9975 261° West 235 270 32,200 1,260 Climbing Cleveland Center
12:10AM 40.1356 -78.0767 260° West 225 259 33,500 900 Climbing Cleveland Center
12:11AM 40.1247 -78.1556 260° West 219 252 34,000 240 Climbing Cleveland Center
12:12AM 40.1119 -78.2458 260° West 232 267 34,000  Level Cleveland Center
12:13AM 40.0972 -78.3439 259° West 257 296 34,000  Level Cleveland Center
12:14AM 40.0847 -78.4447 261° West 276 318 34,000  Level Cleveland Center
12:15AM 40.0719 -78.5456 261° West 282 325 34,000  Level Cleveland Center
12:16AM 40.0569 -78.6436 259° West 282 325 34,000  Level Cleveland Center
12:17AM 40.0439 -78.7417 260° West 277 319 34,000  Level Cleveland Center
12:18AM 40.0289 -78.8425 259° West 277 319 34,000  Level Cleveland Center
12:19AM 40.0158 -78.9431 260° West 277 319 34,000  Level Cleveland Center
12:20AM 40.0067 -79.0328 262° West 277 319 34,000  Level Cleveland Center
12:21AM 39.9911 -79.1333 259° West 277 319 34,000  Level Cleveland Center
12:22AM 39.9778 -79.2286 260° West 277 319 34,000  Level Cleveland Center
12:23AM 39.9622 -79.3264 258° West 277 319 34,000  Level Cleveland Center
12:24AM 39.9486 -79.4242 260° West 277 319 34,000  Level Cleveland Center
12:25AM 39.9350 -79.5217 260° West 277 319 34,000  Level Cleveland Center
12:26AM 39.9233 -79.6194 261° West 277 319 34,000  Level Cleveland Center
12:27AM 39.9075 -79.7144 258° West 277 319 34,000  Level Cleveland Center
12:28AM 39.8936 -79.8092 259° West 277 319 34,000  Level Cleveland Center
12:29AM 39.8775 -79.9150 259° West 277 319 34,000  Level Cleveland Center
12:30AM 39.8614 -80.0097 258° West 277 319 34,000  Level Cleveland Center
12:31AM 39.8494 -80.1044 261° West 277 319 34,000  Level Cleveland Center
12:32AM 39.8331 -80.1964 257° West 277 319 34,000  Level Cleveland Center
12:33AM 39.8208 -80.2883 260° West 277 319 34,000  Level Cleveland Center
12:34AM 39.8064 -80.3831 259° West 277 319 34,000  Level Cleveland Center
12:35AM 39.7919 -80.4778 259° West 277 319 34,000  Level Cleveland Center
12:36AM 39.7775 -80.5694 258° West 277 319 34,000  Level Cleveland Center
12:37AM 39.7517 -80.7042 256° West 262 302 34,000  Level Indianapolis Center
12:38AM 39.7381 -80.7964 259° West 259 298 34,000  Level Indianapolis Center
12:39AM 39.7239 -80.8878 259° West 259 298 34,000  Level Indianapolis Center
12:40AM 39.7094 -80.9778 258° West 256 295 34,000  Level Indianapolis Center
12:41AM 39.6947 -81.0697 258° West 258 297 34,000  Level Indianapolis Center
12:42AM 39.6800 -81.1600 258° West 257 296 34,000  Level Indianapolis Center
12:43AM 39.6658 -81.2514 259° West 260 299 34,000  Level Indianapolis Center
12:44AM 39.6503 -81.3408 257° West 256 295 34,000  Level Indianapolis Center
12:45AM 39.6350 -81.4311 258° West 256 295 34,000  Level Indianapolis Center
12:46AM 39.6214 -81.5214 259° West 255 293 34,000  Level Indianapolis Center
12:47AM 39.6064 -81.6094 258° West 252 290 34,000  Level Indianapolis Center
12:48AM 39.5919 -81.7000 258° West 255 293 34,000  Level Indianapolis Center
12:49AM 39.5767 -81.7894 258° West 255 293 34,000  Level Indianapolis Center
12:50AM 39.5611 -81.8797 257° West 257 296 34,000  Level Indianapolis Center
12:51AM 39.5439 -81.9853 258° West 251 289 34,000  Level Indianapolis Center
12:52AM 39.5278 -82.0764 257° West 257 296 34,000  Level Indianapolis Center
12:53AM 39.5156 -82.1519 258° West 249 287 34,000  Level Indianapolis Center
12:54AM 39.4992 -82.2425 257° West 253 291 34,000 -720 Level Indianapolis Center
12:55AM 39.4839 -82.3336 258° West 257 296 32,600 -1,440 Descending Indianapolis Center
12:56AM 39.4675 -82.4278 257° West 263 303 31,200 -1,440 Descending Indianapolis Center
12:57AM 39.4508 -82.5219 257° West 265 305 29,800 -1,440 Descending Indianapolis Center
12:58AM 39.4336 -82.6197 257° West 274 315 28,300 -1,500 Descending Indianapolis Center
12:59AM 39.4167 -82.7189 258° West 278 320 26,800 -1,500 Descending Indianapolis Center
01:00AM 39.3989 -82.8167 257° West 278 320 25,300 -1,500 Descending Indianapolis Center
01:01AM 39.3811 -82.9153 257° West 279 321 23,800 -1,500 Descending Indianapolis Center
01:02AM 39.3647 -83.0144 258° West 279 321 22,300 -1,500 Descending Indianapolis Center
01:03AM 39.3456 -83.1158 256° West 285 328 20,800 -1,560 Descending Indianapolis Center
01:04AM 39.3272 -83.2192 257° West 292 336 19,200 -1,440 Descending Indianapolis Center
01:05AM 39.3075 -83.3231 256° West 293 337 17,900 -1,500 Descending Indianapolis Center
01:06AM 39.2889 -83.4278 257° West 295 339 16,200 -1,620 Descending Indianapolis Center
01:07AM 39.2711 -83.5292 257° West 288 331 14,700 -1,560 Descending Indianapolis Center
01:08AM 39.2519 -83.6322 257° West 292 336 13,100 -1,620 Descending Indianapolis Center
01:09AM 39.2317 -83.7358 256° West 295 339 11,500 -1,560 Descending Indianapolis Center
01:10AM 39.2133 -83.8350 257° West 283 326 10,000 -1,500 Descending Indianapolis Center
01:11AM 39.1967 -83.9344 258° West 282 325 8,500 -1,620 Descending Indianapolis Center
01:12AM 39.1814 -84.0350 259° West 283 326 6,800 -1,560 Descending Indianapolis Center
01:13AM 39.1694 -84.1256 260° West 261 300 5,400 -1,380 Descending Indianapolis Center
01:14AM 39.1581 -84.2075 260° West 245 282 4,100 -1,200 Descending Indianapolis Center
01:15AM 39.1503 -84.2725 261° West 232 267 3,000 -780 Descending Indianapolis Center
01:16AM 39.1428 -84.3575 264° West 226 260 2,600 -420 Descending Indianapolis Center